createdAt,value
2019-04-03T00:01:34.060Z,27.23
2019-04-03T00:04:02.671Z,27.03
2019-04-03T00:06:31.706Z,24.07
2019-04-03T00:08:59.414Z,25.00
2019-04-03T00:11:26.996Z,25.67
2019-04-03T00:13:54.580Z,25.60
2019-04-03T00:16:22.099Z,24.27
2019-04-03T00:18:49.661Z,22.90
2019-04-03T00:21:19.164Z,22.80
2019-04-03T00:23:47.189Z,24.00
2019-04-03T00:26:14.756Z,22.93
2019-04-03T00:28:43.532Z,21.27
2019-04-03T00:31:11.101Z,22.10
2019-04-03T00:33:38.759Z,21.23
2019-04-03T00:36:06.475Z,22.30
2019-04-03T00:38:34.153Z,19.90
2019-04-03T00:41:01.718Z,22.30
2019-04-03T00:43:29.449Z,24.30
2019-04-03T00:45:57.031Z,23.20
2019-04-03T00:48:25.832Z,21.50
2019-04-03T00:50:56.664Z,20.50
2019-04-03T00:53:23.507Z,21.40
2019-04-03T00:55:51.076Z,20.20
2019-04-03T00:58:44.033Z,22.50
2019-04-03T01:01:11.834Z,20.60
2019-04-03T01:03:41.069Z,21.00
2019-04-03T01:06:08.813Z,20.63
2019-04-03T01:08:36.517Z,21.50
2019-04-03T01:11:04.415Z,21.23
2019-04-03T01:13:32.062Z,22.07
2019-04-03T01:16:02.104Z,21.47
2019-04-03T01:18:29.010Z,20.50
2019-04-03T01:20:56.616Z,21.10
2019-04-03T01:23:24.452Z,21.30
2019-04-03T01:25:52.006Z,19.40
2019-04-03T01:28:22.102Z,22.37
2019-04-03T01:30:49.917Z,19.40
2019-04-03T01:33:18.039Z,26.30
2019-04-03T01:35:48.238Z,19.60
2019-04-03T01:38:15.769Z,22.33
2019-04-03T01:40:43.274Z,20.10
2019-04-03T01:43:11.973Z,20.57
2019-04-03T01:45:39.559Z,20.00
2019-04-03T01:48:07.221Z,20.77
2019-04-03T01:50:34.691Z,19.50
2019-04-03T01:53:02.594Z,20.13
2019-04-03T01:55:30.614Z,20.30
2019-04-03T01:57:58.218Z,20.40
2019-04-03T02:00:25.870Z,19.57
2019-04-03T02:02:53.553Z,20.60
2019-04-03T02:05:21.264Z,21.50
2019-04-03T02:07:49.828Z,20.90
2019-04-03T02:10:19.914Z,20.90
2019-04-03T02:12:48.825Z,20.57
2019-04-03T02:15:16.770Z,20.63
2019-04-03T02:17:44.458Z,19.90
2019-04-03T02:20:12.670Z,21.67
2019-04-03T02:22:40.294Z,23.38
2019-04-03T02:25:07.934Z,22.40
2019-04-03T02:27:35.669Z,25.30
2019-04-03T02:30:04.817Z,23.87
2019-04-03T02:32:32.491Z,21.73
2019-04-03T02:35:00.051Z,20.73
2019-04-03T02:37:27.578Z,23.17
2019-04-03T02:39:59.100Z,23.33
2019-04-03T02:42:24.923Z,21.40
2019-04-03T02:44:52.443Z,23.43
2019-04-03T02:47:19.884Z,22.30
2019-04-03T02:49:47.323Z,23.63
2019-04-03T02:52:14.877Z,21.90
2019-04-03T02:54:43.708Z,21.43
2019-04-03T02:57:11.452Z,22.03
2019-04-03T02:59:38.995Z,20.20
2019-04-03T03:02:06.505Z,24.10
2019-04-03T03:04:34.039Z,22.60
2019-04-03T03:07:05.018Z,22.43
2019-04-03T03:09:33.496Z,22.93
2019-04-03T03:12:01.839Z,22.60
2019-04-03T03:14:29.755Z,23.03
2019-04-03T03:16:58.942Z,26.00
2019-04-03T03:19:27.427Z,25.37
2019-04-03T03:21:58.782Z,23.00
2019-04-03T03:24:29.384Z,23.00
2019-04-03T03:26:57.384Z,23.13
2019-04-03T03:29:27.391Z,20.63
2019-04-03T03:32:12.761Z,22.60
2019-04-03T03:34:47.259Z,23.30
2019-04-03T03:37:00.603Z,22.57
2019-04-03T03:39:24.531Z,20.87
2019-04-03T03:41:57.411Z,22.50
2019-04-03T03:44:24.359Z,21.50
2019-04-03T03:46:53.478Z,23.50
2019-04-03T03:49:23.245Z,23.00
2019-04-03T03:51:51.506Z,18.90
2019-04-03T03:54:19.615Z,21.33
2019-04-03T03:56:48.077Z,20.73
2019-04-03T03:59:17.668Z,22.20
2019-04-03T04:01:46.468Z,22.13
2019-04-03T04:04:15.635Z,18.17
2019-04-03T04:06:43.776Z,20.80
2019-04-03T04:09:11.555Z,23.47
2019-04-03T04:11:39.906Z,23.70
2019-04-03T04:14:08.353Z,21.97
2019-04-03T04:16:37.642Z,28.95
2019-04-03T04:19:06.153Z,25.33
2019-04-03T04:21:33.761Z,23.67
2019-04-03T04:24:01.240Z,23.40
2019-04-03T04:26:31.686Z,25.23
2019-04-03T04:28:59.677Z,22.70
2019-04-03T04:31:27.276Z,25.73
2019-04-03T04:33:55.216Z,25.30
2019-04-03T04:36:24.339Z,23.23
2019-04-03T04:38:52.980Z,24.50
2019-04-03T04:41:20.547Z,26.27
2019-04-03T04:43:48.122Z,24.97
2019-04-03T04:46:16.075Z,23.43
2019-04-03T04:48:43.696Z,25.23
2019-04-03T04:51:11.209Z,26.07
2019-04-03T04:53:39.115Z,26.00
2019-04-03T04:56:07.420Z,26.57
2019-04-03T04:58:35.292Z,27.27
2019-04-03T05:01:02.766Z,26.67
2019-04-03T05:03:30.459Z,26.87
2019-04-03T05:05:59.087Z,24.70
2019-04-03T05:08:27.027Z,27.58
2019-04-03T05:10:54.936Z,28.13
2019-04-03T05:13:22.830Z,30.40
2019-04-03T05:15:53.183Z,27.93
2019-04-03T05:18:20.049Z,28.63
2019-04-03T05:20:48.849Z,28.13
2019-04-03T05:23:17.787Z,28.30
2019-04-03T05:25:45.567Z,28.13
2019-04-03T05:28:13.215Z,25.53
2019-04-03T05:30:40.925Z,31.53
2019-04-03T05:33:11.082Z,27.00
2019-04-03T05:35:39.982Z,28.27
2019-04-03T05:38:08.965Z,27.50
2019-04-03T05:40:40.113Z,26.13
2019-04-03T05:43:07.997Z,28.60
2019-04-03T05:45:35.823Z,28.57
2019-04-03T05:48:04.070Z,29.47
2019-04-03T05:50:36.128Z,25.53
2019-04-03T05:53:05.669Z,29.83
2019-04-03T05:55:34.260Z,27.30
2019-04-03T05:58:01.951Z,29.67
2019-04-03T06:00:29.573Z,27.30
2019-04-03T06:02:58.167Z,29.20
2019-04-03T06:05:25.938Z,28.60
2019-04-03T06:07:53.735Z,27.60
2019-04-03T06:10:21.906Z,27.50
2019-04-03T06:12:49.496Z,33.92
2019-04-03T06:15:17.843Z,29.07
2019-04-03T06:17:45.671Z,28.50
2019-04-03T06:20:13.289Z,31.00
2019-04-03T06:22:40.957Z,31.57
2019-04-03T06:25:13.520Z,26.43
2019-04-03T06:27:42.171Z,28.70
2019-04-03T06:30:10.137Z,27.77
2019-04-03T06:32:37.814Z,29.90
2019-04-03T06:35:05.780Z,30.33
2019-04-03T06:37:53.518Z,32.47
2019-04-03T06:40:21.366Z,32.47
2019-04-03T06:42:48.935Z,29.17
2019-04-03T06:45:16.416Z,26.30
2019-04-03T06:47:44.410Z,27.87
2019-04-03T06:50:16.820Z,30.50
2019-04-03T06:52:43.105Z,28.47
2019-04-03T06:55:10.644Z,27.07
2019-04-03T06:57:39.892Z,30.13
2019-04-03T07:00:07.902Z,28.17
2019-04-03T07:02:35.820Z,28.63
2019-04-03T07:05:04.164Z,30.90
2019-04-03T07:07:35.684Z,29.87
2019-04-03T07:10:04.984Z,34.65
2019-04-03T07:12:32.810Z,30.60
2019-04-03T07:15:00.443Z,29.20
2019-04-03T07:17:29.783Z,29.87
2019-04-03T07:19:57.479Z,29.70
2019-04-03T07:22:27.109Z,29.13
2019-04-03T07:24:54.399Z,28.70
2019-04-03T07:27:21.903Z,26.73
2019-04-03T07:29:49.802Z,31.50
2019-04-03T07:32:17.510Z,29.50
2019-04-03T07:34:45.546Z,29.60
2019-04-03T07:37:15.321Z,29.67
2019-04-03T07:39:42.759Z,31.90
2019-04-03T07:42:10.826Z,28.63
2019-04-03T07:44:38.417Z,29.93
2019-04-03T07:47:06.743Z,29.30
2019-04-03T07:49:34.809Z,28.53
2019-04-03T07:52:03.695Z,30.33
2019-04-03T07:54:32.518Z,28.77
2019-04-03T07:57:00.157Z,31.90
2019-04-03T07:59:27.706Z,29.83
2019-04-03T08:01:55.262Z,33.50
2019-04-03T08:04:25.161Z,29.00
2019-04-03T08:06:53.034Z,30.20
2019-04-03T08:09:20.754Z,28.03
2019-04-03T08:11:48.434Z,27.37
2019-04-03T08:14:19.054Z,30.23
2019-04-03T08:16:47.997Z,28.40
2019-04-03T08:19:15.306Z,28.20
2019-04-03T08:21:42.808Z,28.20
2019-04-03T08:24:10.739Z,30.03
2019-04-03T08:26:38.342Z,29.17
2019-04-03T08:29:05.942Z,29.63
2019-04-03T08:31:34.318Z,28.83
2019-04-03T08:34:14.703Z,29.30
2019-04-03T08:36:32.268Z,29.37
2019-04-03T08:39:00.021Z,28.73
2019-04-03T08:41:27.871Z,26.90
2019-04-03T08:43:55.543Z,30.20
2019-04-03T08:46:23.127Z,26.90
2019-04-03T08:48:50.758Z,27.90
2019-04-03T08:51:18.366Z,27.10
2019-04-03T08:53:46.040Z,32.30
2019-04-03T08:56:16.130Z,28.00
2019-04-03T08:58:45.819Z,28.07
2019-04-03T09:01:12.617Z,29.17
2019-04-03T09:03:40.072Z,25.73
2019-04-03T09:06:07.693Z,27.37
2019-04-03T09:08:35.386Z,27.00
2019-04-03T09:11:05.583Z,28.60
2019-04-03T09:13:33.674Z,27.97
2019-04-03T09:16:02.279Z,28.97
2019-04-03T09:18:30.570Z,26.70
2019-04-03T09:20:58.589Z,28.17
2019-04-03T09:23:26.194Z,27.17
2019-04-03T09:25:53.997Z,28.97
2019-04-03T09:28:21.982Z,27.93
2019-04-03T09:30:49.716Z,25.93
2019-04-03T09:33:18.351Z,28.47
2019-04-03T09:35:46.358Z,28.40
2019-04-03T09:38:14.128Z,28.07
2019-04-03T09:40:41.980Z,27.43
2019-04-03T09:43:10.438Z,26.60
2019-04-03T09:45:38.212Z,28.40
2019-04-03T09:48:06.247Z,33.02
2019-04-03T09:50:33.938Z,28.57
2019-04-03T09:53:02.724Z,27.90
2019-04-03T09:55:35.480Z,28.77
2019-04-03T09:58:03.325Z,29.90
2019-04-03T10:00:30.743Z,28.87
2019-04-03T10:02:59.102Z,30.10
2019-04-03T10:05:28.994Z,29.77
2019-04-03T10:07:56.299Z,27.83
2019-04-03T10:10:25.896Z,29.00
2019-04-03T10:12:54.558Z,29.33
2019-04-03T10:15:22.477Z,31.60
2019-04-03T10:17:50.068Z,29.37
2019-04-03T10:20:18.512Z,30.40
2019-04-03T10:22:46.590Z,30.03
2019-04-03T10:25:14.531Z,31.90
2019-04-03T10:27:43.481Z,28.20
2019-04-03T10:30:12.873Z,30.30
2019-04-03T10:32:41.391Z,29.43
2019-04-03T10:35:09.637Z,29.40
2019-04-03T10:37:37.230Z,29.10
2019-04-03T10:40:05.942Z,26.50
2019-04-03T10:42:33.727Z,28.97
2019-04-03T10:45:01.271Z,28.37
2019-04-03T10:47:40.484Z,28.63
2019-04-03T10:49:58.648Z,29.13
2019-04-03T10:52:26.347Z,30.07
2019-04-03T10:54:55.899Z,28.20
2019-04-03T10:57:23.508Z,28.67
2019-04-03T10:59:54.443Z,29.03
2019-04-03T11:02:20.977Z,27.50
2019-04-03T11:04:48.690Z,30.00
2019-04-03T11:07:16.559Z,30.30
2019-04-03T11:09:44.688Z,30.50
2019-04-03T11:12:12.622Z,29.00
2019-04-03T11:14:40.661Z,30.07
2019-04-03T11:17:09.278Z,29.60
2019-04-03T11:19:37.458Z,33.45
2019-04-03T11:22:06.171Z,30.73
2019-04-03T11:24:33.722Z,28.60
2019-04-03T11:27:01.396Z,28.80
2019-04-03T11:29:29.367Z,30.27
2019-04-03T11:31:56.935Z,30.43
2019-04-03T11:34:24.633Z,29.50
2019-04-03T11:36:52.513Z,29.07
2019-04-03T11:39:20.043Z,28.83
2019-04-03T11:41:47.785Z,29.53
2019-04-03T11:44:15.395Z,29.07
2019-04-03T11:46:43.392Z,28.97
2019-04-03T11:49:11.096Z,27.57
2019-04-03T11:51:39.902Z,29.40
2019-04-03T11:54:08.503Z,29.20
2019-04-03T11:56:37.017Z,29.43
2019-04-03T11:59:04.581Z,29.20
2019-04-03T12:01:35.683Z,29.27
2019-04-03T12:04:04.124Z,29.47
2019-04-03T12:06:32.035Z,30.17
2019-04-03T12:09:01.026Z,30.37
2019-04-03T12:11:30.860Z,30.97
2019-04-03T12:13:58.592Z,31.13
2019-04-03T12:16:26.624Z,30.77
2019-04-03T12:18:54.332Z,31.43
2019-04-03T12:21:21.855Z,29.53
2019-04-03T12:23:49.626Z,31.70
2019-04-03T12:26:20.098Z,30.80
2019-04-03T12:28:48.807Z,31.80
2019-04-03T12:31:16.194Z,32.10
2019-04-03T12:33:53.175Z,29.80
2019-04-03T12:36:16.377Z,32.47
2019-04-03T12:38:44.494Z,31.00
2019-04-03T12:41:12.337Z,29.60
2019-04-03T12:43:39.989Z,28.20
2019-04-03T12:46:07.739Z,34.03
2019-04-03T12:48:35.403Z,31.80
2019-04-03T12:51:03.214Z,30.03
2019-04-03T12:53:31.261Z,29.47
2019-04-03T12:55:58.957Z,28.87
2019-04-03T12:58:26.841Z,30.00
2019-04-03T13:00:57.134Z,28.50
2019-04-03T13:03:37.915Z,28.27
2019-04-03T13:06:08.967Z,28.80
2019-04-03T13:08:35.161Z,30.07
2019-04-03T13:11:02.837Z,28.27
2019-04-03T13:13:30.385Z,27.20
2019-04-03T13:15:58.232Z,27.97
2019-04-03T13:18:25.885Z,29.10
2019-04-03T13:20:54.193Z,29.83
2019-04-03T13:23:21.795Z,30.63
2019-04-03T13:25:51.036Z,34.83
2019-04-03T13:28:19.404Z,31.30
2019-04-03T13:30:47.698Z,30.50
2019-04-03T13:33:17.654Z,30.10
2019-04-03T13:35:47.170Z,30.60
2019-04-03T13:38:15.311Z,31.37
2019-04-03T13:40:42.908Z,30.67
2019-04-03T13:43:10.710Z,32.27
2019-04-03T13:45:38.318Z,31.57
2019-04-03T13:48:05.874Z,32.57
2019-04-03T13:50:33.642Z,31.73
2019-04-03T13:53:01.777Z,29.93
2019-04-03T13:55:33.657Z,29.50
2019-04-03T13:57:59.092Z,31.07
2019-04-03T14:00:26.686Z,31.57
2019-04-03T14:02:56.900Z,29.83
2019-04-03T14:05:26.637Z,28.57
2019-04-03T14:07:53.094Z,31.53
2019-04-03T14:10:20.906Z,31.40
2019-04-03T14:12:48.957Z,30.50
2019-04-03T14:15:19.896Z,30.10
2019-04-03T14:17:55.171Z,30.60
2019-04-03T14:20:16.396Z,28.63
2019-04-03T14:22:44.156Z,27.20
2019-04-03T14:25:19.353Z,29.23
2019-04-03T14:27:41.764Z,32.03
2019-04-03T14:30:11.068Z,31.40
2019-04-03T14:32:39.218Z,31.03
2019-04-03T14:35:33.956Z,29.07
2019-04-03T14:37:37.476Z,30.57
2019-04-03T14:40:07.182Z,28.93
2019-04-03T14:42:35.077Z,33.90
2019-04-03T14:45:03.495Z,29.83
2019-04-03T14:47:31.222Z,35.25
2019-04-03T14:49:58.775Z,30.53
2019-04-03T14:52:26.314Z,28.70
2019-04-03T14:54:55.724Z,30.30
2019-04-03T14:57:25.939Z,29.70
2019-04-03T14:59:55.415Z,28.20
2019-04-03T15:02:23.770Z,28.77
2019-04-03T15:04:52.157Z,30.53
2019-04-03T15:07:19.868Z,30.23
2019-04-03T15:09:47.441Z,29.07
2019-04-03T15:12:15.690Z,28.60
2019-04-03T15:14:43.476Z,28.60
2019-04-03T15:17:10.994Z,28.77
2019-04-03T15:19:38.575Z,29.60
2019-04-03T15:22:06.487Z,30.52
2019-04-03T15:24:34.186Z,27.80
2019-04-03T15:27:02.253Z,31.77
2019-04-03T15:29:29.996Z,29.83
2019-04-03T15:31:58.061Z,27.87
2019-04-03T15:34:27.982Z,29.10
2019-04-03T15:36:55.272Z,28.00
2019-04-03T15:39:22.891Z,29.63
2019-04-03T15:41:50.611Z,28.53
2019-04-03T15:44:20.991Z,28.40
2019-04-03T15:46:47.623Z,27.80
2019-04-03T15:49:15.593Z,27.43
2019-04-03T15:51:43.205Z,26.87
2019-04-03T15:54:11.251Z,27.37
2019-04-03T15:56:38.859Z,27.40
2019-04-03T15:59:06.470Z,28.37
2019-04-03T16:01:34.404Z,30.03
2019-04-03T16:04:03.805Z,31.00
2019-04-03T16:06:31.631Z,28.70
2019-04-03T16:08:59.919Z,28.47
2019-04-03T16:11:29.734Z,29.40
2019-04-03T16:13:57.076Z,29.40
2019-04-03T16:16:25.858Z,30.47
2019-04-03T16:18:54.183Z,26.80
2019-04-03T16:21:23.641Z,26.87
2019-04-03T16:23:51.717Z,28.77
2019-04-03T16:26:23.341Z,28.33
2019-04-03T16:28:48.686Z,27.83
2019-04-03T16:31:18.040Z,31.10
2019-04-03T16:33:45.695Z,29.50
2019-04-03T16:36:14.008Z,27.90
2019-04-03T16:38:43.002Z,30.50
2019-04-03T16:41:11.638Z,30.77
2019-04-03T16:43:40.466Z,27.67
2019-04-03T16:46:10.906Z,31.07
2019-04-03T16:48:39.135Z,29.93
2019-04-03T16:51:07.763Z,33.03
2019-04-03T16:53:38.350Z,28.93
2019-04-03T16:56:06.479Z,26.60
2019-04-03T16:58:34.701Z,27.70
2019-04-03T17:01:02.366Z,25.53
2019-04-03T17:03:32.060Z,27.83
2019-04-03T17:05:59.831Z,25.40
2019-04-03T17:08:27.622Z,27.60
2019-04-03T17:10:55.303Z,26.67
2019-04-03T17:13:23.041Z,27.13
2019-04-03T17:15:53.154Z,26.63
2019-04-03T17:18:20.746Z,27.30
2019-04-03T17:20:50.401Z,26.40
2019-04-03T17:23:17.659Z,25.83
2019-04-03T17:25:49.293Z,25.90
2019-04-03T17:28:16.681Z,28.60
2019-04-03T17:30:45.869Z,33.20
2019-04-03T17:33:13.510Z,30.13
2019-04-03T17:35:41.327Z,29.40
2019-04-03T17:38:09.115Z,32.83
2019-04-03T17:40:37.225Z,32.10
2019-04-03T17:43:05.017Z,31.07
2019-04-03T17:45:32.933Z,43.23
2019-04-03T17:48:00.780Z,32.90
2019-04-03T17:50:29.792Z,29.37
2019-04-03T17:52:57.950Z,30.67
2019-04-03T17:55:25.577Z,27.63
2019-04-03T17:57:53.110Z,29.07
2019-04-03T18:00:21.601Z,25.97
2019-04-03T18:02:49.306Z,27.77
2019-04-03T18:05:18.107Z,29.03
2019-04-03T18:07:45.822Z,29.20
2019-04-03T18:10:14.014Z,27.87
2019-04-03T18:12:45.434Z,26.80
2019-04-03T18:15:12.490Z,28.17
2019-04-03T18:17:40.247Z,28.07
2019-04-03T18:20:08.501Z,32.47
2019-04-03T18:22:36.104Z,33.47
2019-04-03T18:25:07.924Z,30.60
2019-04-03T18:27:35.134Z,31.87
2019-04-03T18:30:03.482Z,26.43
2019-04-03T18:32:32.207Z,30.43
2019-04-03T18:34:59.916Z,30.87
2019-04-03T18:37:28.001Z,31.87
2019-04-03T18:39:55.654Z,31.90
2019-04-03T18:42:23.295Z,33.40
2019-04-03T18:44:50.878Z,32.73
2019-04-03T18:47:18.527Z,34.40
2019-04-03T18:49:46.154Z,36.87
2019-04-03T18:52:13.982Z,36.60
2019-04-03T18:54:42.478Z,36.10
2019-04-03T18:57:10.816Z,31.17
2019-04-03T19:00:00.455Z,35.87
2019-04-03T19:02:27.875Z,40.08
2019-04-03T19:05:01.745Z,37.20
2019-04-03T19:07:25.105Z,45.10
2019-04-03T19:09:52.904Z,39.90
2019-04-03T19:12:20.748Z,31.43
2019-04-03T19:14:48.525Z,35.60
2019-04-03T19:17:16.477Z,35.00
2019-04-03T19:19:44.044Z,36.20
2019-04-03T19:22:11.946Z,34.03
2019-04-03T19:24:39.710Z,39.57
2019-04-03T19:27:08.485Z,40.57
2019-04-03T19:29:36.367Z,40.80
2019-04-03T19:32:06.250Z,41.00
2019-04-03T19:34:34.141Z,37.60
2019-04-03T19:37:03.617Z,38.30
2019-04-03T19:39:31.515Z,35.30
2019-04-03T19:42:01.586Z,37.40
2019-04-03T19:44:30.107Z,40.47
2019-04-03T19:46:58.280Z,38.37
2019-04-03T19:49:27.447Z,38.20
2019-04-03T19:51:55.589Z,33.40
2019-04-03T19:54:25.130Z,30.73
2019-04-03T19:56:52.879Z,36.23
2019-04-03T19:59:20.538Z,43.87
2019-04-03T20:01:50.694Z,45.07
2019-04-03T20:04:18.244Z,45.00
2019-04-03T20:06:46.091Z,36.50
2019-04-03T20:09:13.606Z,39.40
2019-04-03T20:11:41.250Z,34.73
2019-04-03T20:14:11.354Z,33.00
2019-04-03T20:16:38.228Z,34.23
2019-04-03T20:19:05.710Z,32.67
2019-04-03T20:21:34.078Z,30.47
2019-04-03T20:24:02.916Z,33.20
2019-04-03T20:26:33.634Z,35.77
2019-04-03T20:29:02.269Z,33.63
2019-04-03T20:31:30.296Z,32.27
2019-04-03T20:33:57.858Z,32.00
2019-04-03T20:36:25.363Z,32.83
2019-04-03T20:38:53.089Z,33.17
2019-04-03T20:41:20.754Z,30.47
2019-04-03T20:43:48.498Z,30.63
2019-04-03T20:46:16.651Z,39.95
2019-04-03T20:48:44.454Z,34.53
2019-04-03T20:51:15.056Z,32.60
2019-04-03T20:53:42.687Z,32.10
2019-04-03T20:56:34.240Z,35.30
2019-04-03T20:59:03.085Z,35.40
2019-04-03T21:01:32.149Z,34.77
2019-04-03T21:03:59.992Z,35.20
2019-04-03T21:06:27.558Z,35.43
2019-04-03T21:08:55.172Z,36.77
2019-04-03T21:11:23.104Z,37.17
2019-04-03T21:13:50.832Z,36.90
2019-04-03T21:16:18.648Z,37.30
2019-04-03T21:18:46.375Z,36.77
2019-04-03T21:21:14.293Z,36.07
2019-04-03T21:23:41.876Z,33.93
2019-04-03T21:26:09.991Z,37.13
2019-04-03T21:28:40.942Z,37.33
2019-04-03T21:31:09.245Z,35.10
2019-04-03T21:33:36.946Z,29.37
2019-04-03T21:36:07.081Z,29.13
2019-04-03T21:38:34.755Z,27.00
2019-04-03T21:41:02.510Z,23.77
2019-04-03T21:43:30.173Z,24.00
2019-04-03T21:45:57.762Z,23.37
2019-04-03T21:48:25.366Z,22.13
2019-04-03T21:50:53.019Z,23.70
2019-04-03T21:53:20.739Z,22.40
2019-04-03T21:55:48.417Z,22.57
2019-04-03T21:58:15.963Z,22.40
2019-04-03T22:01:18.046Z,18.10
2019-04-03T22:03:46.707Z,21.60
2019-04-03T22:06:14.239Z,20.37
2019-04-03T22:08:41.775Z,21.43
2019-04-03T22:11:09.245Z,22.30
2019-04-03T22:13:38.248Z,20.50
2019-04-03T22:16:06.218Z,20.50
2019-04-03T22:18:33.939Z,23.77
2019-04-03T22:21:01.859Z,20.77
2019-04-03T22:23:30.282Z,21.70
2019-04-03T22:25:57.880Z,19.97
2019-04-03T22:28:25.599Z,20.07
2019-04-03T22:30:53.216Z,20.13
2019-04-03T22:33:20.837Z,21.30
2019-04-03T22:35:48.440Z,20.80
2019-04-03T22:38:16.030Z,25.40
2019-04-03T22:40:43.623Z,21.75
2019-04-03T22:43:11.277Z,21.10
2019-04-03T22:45:41.182Z,21.60
2019-04-03T22:48:09.900Z,20.47
2019-04-03T22:50:37.680Z,19.67
2019-04-03T22:53:05.356Z,19.60
2019-04-03T22:55:32.827Z,21.03
2019-04-03T22:58:00.429Z,21.27
2019-04-03T23:00:28.033Z,22.60
2019-04-03T23:02:55.707Z,21.40
2019-04-03T23:05:23.320Z,21.67
2019-04-03T23:07:52.644Z,21.80
2019-04-03T23:10:20.321Z,24.17
2019-04-03T23:12:48.252Z,22.83
2019-04-03T23:15:15.849Z,21.83
2019-04-03T23:17:44.804Z,22.07
2019-04-03T23:20:13.150Z,23.37
2019-04-03T23:22:40.750Z,22.70
2019-04-03T23:25:08.828Z,22.70
2019-04-03T23:27:36.491Z,21.63
2019-04-03T23:30:05.225Z,21.83
2019-04-03T23:32:32.804Z,21.80
2019-04-03T23:35:00.331Z,22.70
2019-04-03T23:37:27.932Z,22.00
2019-04-03T23:39:55.560Z,25.75
2019-04-03T23:42:23.099Z,23.53
2019-04-03T23:44:50.662Z,21.97
2019-04-03T23:47:18.448Z,21.87
2019-04-03T23:49:46.253Z,21.03
2019-04-03T23:52:13.817Z,20.70
2019-04-03T23:54:41.565Z,22.93
2019-04-03T23:57:09.830Z,22.40
2019-04-03T23:59:40.232Z,22.73
